sensor_id;sensor_type;location;lat;lon;timestamp;temperature;humidity
20246;DHT22;10281;54.406;18.556;2023-07-31T00:01:34;15.90;99.90
20246;DHT22;10281;54.406;18.556;2023-07-31T00:04:00;15.90;99.90
20246;DHT22;10281;54.406;18.556;2023-07-31T00:06:27;15.90;99.90
20246;DHT22;10281;54.406;18.556;2023-07-31T00:08:53;16.00;99.90
20246;DHT22;10281;54.406;18.556;2023-07-31T00:11:20;16.00;99.90
20246;DHT22;10281;54.406;18.556;2023-07-31T00:13:47;16.00;99.90
20246;DHT22;10281;54.406;18.556;2023-07-31T00:16:13;16.10;99.90
20246;DHT22;10281;54.406;18.556;2023-07-31T00:18:40;16.10;99.90
20246;DHT22;10281;54.406;18.556;2023-07-31T00:21:06;16.10;99.90
20246;DHT22;10281;54.406;18.556;2023-07-31T00:23:33;16.10;99.90
20246;DHT22;10281;54.406;18.556;2023-07-31T00:26:00;16.00;99.90
20246;DHT22;10281;54.406;18.556;2023-07-31T00:28:27;16.00;99.90
20246;DHT22;10281;54.406;18.556;2023-07-31T00:30:54;16.00;99.90
20246;DHT22;10281;54.406;18.556;2023-07-31T00:33:21;16.00;99.90
20246;DHT22;10281;54.406;18.556;2023-07-31T00:35:48;15.90;99.90
20246;DHT22;10281;54.406;18.556;2023-07-31T00:38:15;15.80;99.90
20246;DHT22;10281;54.406;18.556;2023-07-31T00:40:42;15.80;99.90
20246;DHT22;10281;54.406;18.556;2023-07-31T00:43:08;15.80;99.90
20246;DHT22;10281;54.406;18.556;2023-07-31T00:45:35;15.80;99.90
20246;DHT22;10281;54.406;18.556;2023-07-31T00:48:02;15.80;99.90
20246;DHT22;10281;54.406;18.556;2023-07-31T00:50:29;15.70;99.90
20246;DHT22;10281;54.406;18.556;2023-07-31T00:52:55;15.70;99.90
20246;DHT22;10281;54.406;18.556;2023-07-31T00:55:22;15.60;99.90
20246;DHT22;10281;54.406;18.556;2023-07-31T00:57:50;15.60;99.90
20246;DHT22;10281;54.406;18.556;2023-07-31T01:00:18;15.50;99.90
20246;DHT22;10281;54.406;18.556;2023-07-31T01:02:45;15.40;99.90
20246;DHT22;10281;54.406;18.556;2023-07-31T01:05:12;15.40;99.90
20246;DHT22;10281;54.406;18.556;2023-07-31T01:07:49;15.40;99.90
20246;DHT22;10281;54.406;18.556;2023-07-31T01:10:20;15.40;99.90
20246;DHT22;10281;54.406;18.556;2023-07-31T01:12:48;15.30;99.90
20246;DHT22;10281;54.406;18.556;2023-07-31T01:15:17;15.30;99.90
20246;DHT22;10281;54.406;18.556;2023-07-31T01:17:44;15.30;99.90
20246;DHT22;10281;54.406;18.556;2023-07-31T01:20:22;15.20;99.90
20246;DHT22;10281;54.406;18.556;2023-07-31T01:25:53;15.20;99.90
20246;DHT22;10281;54.406;18.556;2023-07-31T01:28:25;15.20;99.90
20246;DHT22;10281;54.406;18.556;2023-07-31T01:30:54;15.10;99.90
20246;DHT22;10281;54.406;18.556;2023-07-31T01:33:22;15.00;99.90
20246;DHT22;10281;54.406;18.556;2023-07-31T01:35:49;15.00;99.90
20246;DHT22;10281;54.406;18.556;2023-07-31T01:38:21;15.00;99.90
20246;DHT22;10281;54.406;18.556;2023-07-31T01:40:52;15.00;99.90
20246;DHT22;10281;54.406;18.556;2023-07-31T01:43:19;14.90;99.90
20246;DHT22;10281;54.406;18.556;2023-07-31T01:45:46;14.90;99.90
20246;DHT22;10281;54.406;18.556;2023-07-31T01:48:12;14.90;99.90
20246;DHT22;10281;54.406;18.556;2023-07-31T01:50:39;14.90;99.90
20246;DHT22;10281;54.406;18.556;2023-07-31T01:53:05;15.00;99.90
20246;DHT22;10281;54.406;18.556;2023-07-31T01:55:32;15.00;99.90
20246;DHT22;10281;54.406;18.556;2023-07-31T01:57:59;15.00;99.90
20246;DHT22;10281;54.406;18.556;2023-07-31T02:00:25;14.90;99.90
20246;DHT22;10281;54.406;18.556;2023-07-31T02:02:52;14.90;99.90
20246;DHT22;10281;54.406;18.556;2023-07-31T02:05:18;14.90;99.90
20246;DHT22;10281;54.406;18.556;2023-07-31T02:07:45;14.90;99.90
20246;DHT22;10281;54.406;18.556;2023-07-31T02:10:12;14.80;99.90
20246;DHT22;10281;54.406;18.556;2023-07-31T02:12:38;14.80;99.90
20246;DHT22;10281;54.406;18.556;2023-07-31T02:15:06;14.80;99.90
20246;DHT22;10281;54.406;18.556;2023-07-31T02:17:33;14.80;99.90
20246;DHT22;10281;54.406;18.556;2023-07-31T02:20:00;14.70;99.90
20246;DHT22;10281;54.406;18.556;2023-07-31T02:22:27;14.70;99.90
20246;DHT22;10281;54.406;18.556;2023-07-31T02:24:54;14.70;99.90
20246;DHT22;10281;54.406;18.556;2023-07-31T02:27:20;14.70;99.90
20246;DHT22;10281;54.406;18.556;2023-07-31T02:29:49;14.70;99.90
20246;DHT22;10281;54.406;18.556;2023-07-31T02:32:15;14.60;99.90
20246;DHT22;10281;54.406;18.556;2023-07-31T02:34:42;14.60;99.90
20246;DHT22;10281;54.406;18.556;2023-07-31T02:37:09;14.60;99.90
20246;DHT22;10281;54.406;18.556;2023-07-31T02:39:35;14.50;99.90
20246;DHT22;10281;54.406;18.556;2023-07-31T02:42:02;14.50;99.90
20246;DHT22;10281;54.406;18.556;2023-07-31T02:44:29;14.40;99.90
20246;DHT22;10281;54.406;18.556;2023-07-31T02:46:56;14.40;99.90
20246;DHT22;10281;54.406;18.556;2023-07-31T02:49:22;14.40;99.90
20246;DHT22;10281;54.406;18.556;2023-07-31T02:51:49;14.40;99.90
20246;DHT22;10281;54.406;18.556;2023-07-31T02:54:15;14.40;99.90
20246;DHT22;10281;54.406;18.556;2023-07-31T02:56:42;14.40;99.90
20246;DHT22;10281;54.406;18.556;2023-07-31T02:59:09;14.30;99.90
20246;DHT22;10281;54.406;18.556;2023-07-31T03:01:35;14.30;99.90
20246;DHT22;10281;54.406;18.556;2023-07-31T03:04:02;14.30;99.90
20246;DHT22;10281;54.406;18.556;2023-07-31T03:06:29;14.30;99.90
20246;DHT22;10281;54.406;18.556;2023-07-31T03:08:55;14.30;99.90
20246;DHT22;10281;54.406;18.556;2023-07-31T03:11:22;14.30;99.90
20246;DHT22;10281;54.406;18.556;2023-07-31T03:13:48;14.20;99.90
20246;DHT22;10281;54.406;18.556;2023-07-31T03:16:15;14.20;99.90
20246;DHT22;10281;54.406;18.556;2023-07-31T03:18:42;14.20;99.90
20246;DHT22;10281;54.406;18.556;2023-07-31T03:21:08;14.20;99.90
20246;DHT22;10281;54.406;18.556;2023-07-31T03:23:35;14.20;99.90
20246;DHT22;10281;54.406;18.556;2023-07-31T03:26:06;14.20;99.90
20246;DHT22;10281;54.406;18.556;2023-07-31T03:28:31;14.20;99.90
20246;DHT22;10281;54.406;18.556;2023-07-31T03:30:58;14.20;99.90
20246;DHT22;10281;54.406;18.556;2023-07-31T03:33:25;14.20;99.90
20246;DHT22;10281;54.406;18.556;2023-07-31T03:35:52;14.20;99.90
20246;DHT22;10281;54.406;18.556;2023-07-31T03:38:19;14.20;99.90
20246;DHT22;10281;54.406;18.556;2023-07-31T03:40:46;14.20;99.90
20246;DHT22;10281;54.406;18.556;2023-07-31T03:43:13;14.20;99.90
20246;DHT22;10281;54.406;18.556;2023-07-31T03:45:39;14.20;99.90
20246;DHT22;10281;54.406;18.556;2023-07-31T03:48:06;14.20;99.90
20246;DHT22;10281;54.406;18.556;2023-07-31T03:50:33;14.20;99.90
20246;DHT22;10281;54.406;18.556;2023-07-31T03:53:00;14.20;99.90
20246;DHT22;10281;54.406;18.556;2023-07-31T03:55:27;14.20;99.90
20246;DHT22;10281;54.406;18.556;2023-07-31T03:57:53;14.20;99.90
20246;DHT22;10281;54.406;18.556;2023-07-31T04:00:20;14.20;99.90
20246;DHT22;10281;54.406;18.556;2023-07-31T04:02:48;14.30;99.90
20246;DHT22;10281;54.406;18.556;2023-07-31T04:05:15;14.40;99.90
20246;DHT22;10281;54.406;18.556;2023-07-31T04:07:41;14.40;99.90
20246;DHT22;10281;54.406;18.556;2023-07-31T04:10:08;14.40;99.90
20246;DHT22;10281;54.406;18.556;2023-07-31T04:12:35;14.40;99.90
20246;DHT22;10281;54.406;18.556;2023-07-31T04:15:01;14.40;99.90
20246;DHT22;10281;54.406;18.556;2023-07-31T04:17:28;14.50;99.90
20246;DHT22;10281;54.406;18.556;2023-07-31T04:19:55;14.50;99.90
20246;DHT22;10281;54.406;18.556;2023-07-31T04:22:21;14.50;99.90
20246;DHT22;10281;54.406;18.556;2023-07-31T04:24:48;14.60;99.90
20246;DHT22;10281;54.406;18.556;2023-07-31T04:27:14;14.60;99.90
20246;DHT22;10281;54.406;18.556;2023-07-31T04:29:41;14.70;99.90
20246;DHT22;10281;54.406;18.556;2023-07-31T04:32:08;14.70;99.90
20246;DHT22;10281;54.406;18.556;2023-07-31T04:34:35;14.80;99.90
20246;DHT22;10281;54.406;18.556;2023-07-31T04:37:02;14.80;99.90
20246;DHT22;10281;54.406;18.556;2023-07-31T04:39:28;14.90;99.90
20246;DHT22;10281;54.406;18.556;2023-07-31T04:41:55;14.90;99.90
20246;DHT22;10281;54.406;18.556;2023-07-31T04:44:22;15.00;99.90
20246;DHT22;10281;54.406;18.556;2023-07-31T04:46:48;15.00;99.90
20246;DHT22;10281;54.406;18.556;2023-07-31T04:49:15;15.10;99.90
20246;DHT22;10281;54.406;18.556;2023-07-31T04:51:42;15.20;99.90
20246;DHT22;10281;54.406;18.556;2023-07-31T04:54:08;15.20;99.90
20246;DHT22;10281;54.406;18.556;2023-07-31T04:56:35;15.30;99.90
20246;DHT22;10281;54.406;18.556;2023-07-31T04:59:01;15.40;99.90
20246;DHT22;10281;54.406;18.556;2023-07-31T05:01:28;15.40;99.90
20246;DHT22;10281;54.406;18.556;2023-07-31T05:03:55;15.50;99.90
20246;DHT22;10281;54.406;18.556;2023-07-31T05:06:21;15.50;99.90
20246;DHT22;10281;54.406;18.556;2023-07-31T05:08:48;15.60;99.90
20246;DHT22;10281;54.406;18.556;2023-07-31T05:11:14;15.60;99.90
20246;DHT22;10281;54.406;18.556;2023-07-31T05:13:42;15.70;99.90
20246;DHT22;10281;54.406;18.556;2023-07-31T05:16:08;15.70;99.90
20246;DHT22;10281;54.406;18.556;2023-07-31T05:18:35;15.70;99.90
20246;DHT22;10281;54.406;18.556;2023-07-31T05:21:02;15.80;99.90
20246;DHT22;10281;54.406;18.556;2023-07-31T05:23:28;15.80;99.90
20246;DHT22;10281;54.406;18.556;2023-07-31T05:26:03;15.70;99.90
20246;DHT22;10281;54.406;18.556;2023-07-31T05:28:30;15.70;99.90
20246;DHT22;10281;54.406;18.556;2023-07-31T05:31:00;15.70;99.90
20246;DHT22;10281;54.406;18.556;2023-07-31T05:33:27;15.70;99.90
20246;DHT22;10281;54.406;18.556;2023-07-31T05:35:53;15.80;99.90
20246;DHT22;10281;54.406;18.556;2023-07-31T05:38:20;15.90;99.90
20246;DHT22;10281;54.406;18.556;2023-07-31T05:40:47;15.90;99.90
20246;DHT22;10281;54.406;18.556;2023-07-31T05:43:14;15.90;99.90
20246;DHT22;10281;54.406;18.556;2023-07-31T05:45:42;16.10;99.90
20246;DHT22;10281;54.406;18.556;2023-07-31T05:48:09;16.20;99.90
20246;DHT22;10281;54.406;18.556;2023-07-31T05:50:36;16.30;99.90
20246;DHT22;10281;54.406;18.556;2023-07-31T05:53:05;16.30;99.90
20246;DHT22;10281;54.406;18.556;2023-07-31T05:55:32;16.30;99.90
20246;DHT22;10281;54.406;18.556;2023-07-31T05:57:58;16.40;99.90
20246;DHT22;10281;54.406;18.556;2023-07-31T06:00:25;16.50;99.90
20246;DHT22;10281;54.406;18.556;2023-07-31T06:02:52;16.60;99.90
20246;DHT22;10281;54.406;18.556;2023-07-31T06:05:19;16.70;99.90
20246;DHT22;10281;54.406;18.556;2023-07-31T06:07:46;16.60;99.90
20246;DHT22;10281;54.406;18.556;2023-07-31T06:10:13;16.70;99.90
20246;DHT22;10281;54.406;18.556;2023-07-31T06:12:39;16.80;99.90
20246;DHT22;10281;54.406;18.556;2023-07-31T06:15:06;16.90;99.90
20246;DHT22;10281;54.406;18.556;2023-07-31T06:17:33;17.00;99.90
20246;DHT22;10281;54.406;18.556;2023-07-31T06:20:00;17.10;99.90
20246;DHT22;10281;54.406;18.556;2023-07-31T06:22:26;17.10;99.90
20246;DHT22;10281;54.406;18.556;2023-07-31T06:24:53;17.20;99.90
20246;DHT22;10281;54.406;18.556;2023-07-31T06:27:19;17.20;99.90
20246;DHT22;10281;54.406;18.556;2023-07-31T06:29:46;17.40;99.90
20246;DHT22;10281;54.406;18.556;2023-07-31T06:32:13;17.40;99.90
20246;DHT22;10281;54.406;18.556;2023-07-31T06:34:40;17.40;99.90
20246;DHT22;10281;54.406;18.556;2023-07-31T06:37:07;17.40;99.90
20246;DHT22;10281;54.406;18.556;2023-07-31T06:39:33;17.50;99.90
20246;DHT22;10281;54.406;18.556;2023-07-31T06:42:00;17.60;99.90
20246;DHT22;10281;54.406;18.556;2023-07-31T06:44:27;17.50;99.90
20246;DHT22;10281;54.406;18.556;2023-07-31T06:46:53;17.50;99.90
20246;DHT22;10281;54.406;18.556;2023-07-31T06:49:20;17.60;99.90
20246;DHT22;10281;54.406;18.556;2023-07-31T06:51:47;17.60;99.90
20246;DHT22;10281;54.406;18.556;2023-07-31T06:54:13;17.70;99.90
20246;DHT22;10281;54.406;18.556;2023-07-31T06:56:40;17.70;99.90
20246;DHT22;10281;54.406;18.556;2023-07-31T06:59:06;17.80;99.90
20246;DHT22;10281;54.406;18.556;2023-07-31T07:01:33;17.90;99.90
20246;DHT22;10281;54.406;18.556;2023-07-31T07:04:00;17.90;99.90
20246;DHT22;10281;54.406;18.556;2023-07-31T07:06:27;18.00;99.90
20246;DHT22;10281;54.406;18.556;2023-07-31T07:08:53;18.00;99.90
20246;DHT22;10281;54.406;18.556;2023-07-31T07:11:20;18.00;99.90
20246;DHT22;10281;54.406;18.556;2023-07-31T07:13:46;18.10;99.90
20246;DHT22;10281;54.406;18.556;2023-07-31T07:16:14;18.10;99.90
20246;DHT22;10281;54.406;18.556;2023-07-31T07:18:40;18.10;99.90
20246;DHT22;10281;54.406;18.556;2023-07-31T07:21:07;18.10;99.90
20246;DHT22;10281;54.406;18.556;2023-07-31T07:23:34;18.20;99.90
20246;DHT22;10281;54.406;18.556;2023-07-31T07:26:01;18.20;99.90
20246;DHT22;10281;54.406;18.556;2023-07-31T07:28:28;18.20;99.90
20246;DHT22;10281;54.406;18.556;2023-07-31T07:30:54;18.20;99.90
20246;DHT22;10281;54.406;18.556;2023-07-31T07:33:21;18.20;99.90
20246;DHT22;10281;54.406;18.556;2023-07-31T07:35:48;18.30;99.90
20246;DHT22;10281;54.406;18.556;2023-07-31T07:38:15;18.50;99.90
20246;DHT22;10281;54.406;18.556;2023-07-31T07:40:42;18.60;99.90
20246;DHT22;10281;54.406;18.556;2023-07-31T07:43:08;18.60;99.90
20246;DHT22;10281;54.406;18.556;2023-07-31T07:45:35;18.60;99.90
20246;DHT22;10281;54.406;18.556;2023-07-31T07:48:02;18.70;99.90
20246;DHT22;10281;54.406;18.556;2023-07-31T07:50:28;18.80;99.90
20246;DHT22;10281;54.406;18.556;2023-07-31T07:52:55;18.80;99.90
20246;DHT22;10281;54.406;18.556;2023-07-31T07:55:21;18.90;99.90
20246;DHT22;10281;54.406;18.556;2023-07-31T07:57:48;18.90;99.90
20246;DHT22;10281;54.406;18.556;2023-07-31T08:00:16;19.00;99.90
20246;DHT22;10281;54.406;18.556;2023-07-31T08:02:43;19.00;99.90
20246;DHT22;10281;54.406;18.556;2023-07-31T08:05:10;19.00;99.90
20246;DHT22;10281;54.406;18.556;2023-07-31T08:07:37;19.10;99.90
20246;DHT22;10281;54.406;18.556;2023-07-31T08:10:04;19.20;99.90
20246;DHT22;10281;54.406;18.556;2023-07-31T08:12:30;19.20;99.90
20246;DHT22;10281;54.406;18.556;2023-07-31T08:14:57;19.30;99.90
20246;DHT22;10281;54.406;18.556;2023-07-31T08:17:25;19.40;99.90
20246;DHT22;10281;54.406;18.556;2023-07-31T08:19:52;19.50;99.90
20246;DHT22;10281;54.406;18.556;2023-07-31T08:22:19;19.50;99.90
20246;DHT22;10281;54.406;18.556;2023-07-31T08:24:45;19.70;99.90
20246;DHT22;10281;54.406;18.556;2023-07-31T08:27:12;19.70;99.90
20246;DHT22;10281;54.406;18.556;2023-07-31T08:29:38;19.70;99.90
20246;DHT22;10281;54.406;18.556;2023-07-31T08:32:06;19.80;99.90
20246;DHT22;10281;54.406;18.556;2023-07-31T08:34:32;19.80;99.90
20246;DHT22;10281;54.406;18.556;2023-07-31T08:36:59;19.80;99.90
20246;DHT22;10281;54.406;18.556;2023-07-31T08:39:25;19.90;99.90
20246;DHT22;10281;54.406;18.556;2023-07-31T08:41:57;19.90;99.90
20246;DHT22;10281;54.406;18.556;2023-07-31T08:44:24;20.00;99.90
20246;DHT22;10281;54.406;18.556;2023-07-31T08:46:51;20.10;99.90
20246;DHT22;10281;54.406;18.556;2023-07-31T08:49:20;20.10;99.90
20246;DHT22;10281;54.406;18.556;2023-07-31T08:51:49;20.20;99.90
20246;DHT22;10281;54.406;18.556;2023-07-31T08:54:16;20.20;99.90
20246;DHT22;10281;54.406;18.556;2023-07-31T08:56:43;20.20;99.90
20246;DHT22;10281;54.406;18.556;2023-07-31T08:59:11;20.30;99.90
20246;DHT22;10281;54.406;18.556;2023-07-31T09:01:43;20.40;99.90
20246;DHT22;10281;54.406;18.556;2023-07-31T09:04:10;20.40;99.90
20246;DHT22;10281;54.406;18.556;2023-07-31T09:06:39;20.50;99.90
20246;DHT22;10281;54.406;18.556;2023-07-31T09:09:07;20.50;99.90
20246;DHT22;10281;54.406;18.556;2023-07-31T09:11:33;20.60;99.90
20246;DHT22;10281;54.406;18.556;2023-07-31T09:14:00;20.50;99.90
20246;DHT22;10281;54.406;18.556;2023-07-31T09:16:30;20.50;99.90
20246;DHT22;10281;54.406;18.556;2023-07-31T09:18:59;20.60;99.90
20246;DHT22;10281;54.406;18.556;2023-07-31T09:21:28;20.50;99.90
20246;DHT22;10281;54.406;18.556;2023-07-31T09:23:55;20.50;99.90
20246;DHT22;10281;54.406;18.556;2023-07-31T09:26:29;20.40;99.90
20246;DHT22;10281;54.406;18.556;2023-07-31T09:28:57;20.40;99.90
20246;DHT22;10281;54.406;18.556;2023-07-31T09:31:33;20.40;99.90
20246;DHT22;10281;54.406;18.556;2023-07-31T09:34:01;20.40;99.90
20246;DHT22;10281;54.406;18.556;2023-07-31T09:36:29;20.40;99.90
20246;DHT22;10281;54.406;18.556;2023-07-31T09:39:01;20.40;99.90
20246;DHT22;10281;54.406;18.556;2023-07-31T09:41:29;20.50;99.90
20246;DHT22;10281;54.406;18.556;2023-07-31T09:43:56;20.60;99.90
20246;DHT22;10281;54.406;18.556;2023-07-31T09:46:22;20.70;99.90
20246;DHT22;10281;54.406;18.556;2023-07-31T09:48:49;20.70;99.90
20246;DHT22;10281;54.406;18.556;2023-07-31T09:51:15;20.90;99.90
20246;DHT22;10281;54.406;18.556;2023-07-31T09:53:49;21.00;99.90
20246;DHT22;10281;54.406;18.556;2023-07-31T09:56:13;20.90;99.90
20246;DHT22;10281;54.406;18.556;2023-07-31T09:58:39;20.90;99.90
20246;DHT22;10281;54.406;18.556;2023-07-31T10:01:07;21.00;99.90
20246;DHT22;10281;54.406;18.556;2023-07-31T10:03:34;21.10;99.90
20246;DHT22;10281;54.406;18.556;2023-07-31T10:06:02;21.30;99.90
20246;DHT22;10281;54.406;18.556;2023-07-31T10:08:30;21.40;99.90
20246;DHT22;10281;54.406;18.556;2023-07-31T10:10:59;21.50;99.90
20246;DHT22;10281;54.406;18.556;2023-07-31T10:13:29;21.60;99.90
20246;DHT22;10281;54.406;18.556;2023-07-31T10:15:59;21.60;99.90
20246;DHT22;10281;54.406;18.556;2023-07-31T10:18:27;21.60;99.90
20246;DHT22;10281;54.406;18.556;2023-07-31T10:20:55;21.70;99.90
20246;DHT22;10281;54.406;18.556;2023-07-31T10:23:23;21.70;99.90
20246;DHT22;10281;54.406;18.556;2023-07-31T10:25:53;21.70;99.90
20246;DHT22;10281;54.406;18.556;2023-07-31T10:28:21;21.70;99.90
20246;DHT22;10281;54.406;18.556;2023-07-31T10:30:48;21.60;99.90
20246;DHT22;10281;54.406;18.556;2023-07-31T10:33:16;21.50;99.90
20246;DHT22;10281;54.406;18.556;2023-07-31T10:35:43;21.40;99.90
20246;DHT22;10281;54.406;18.556;2023-07-31T10:38:11;21.40;99.90
20246;DHT22;10281;54.406;18.556;2023-07-31T10:40:38;21.50;99.90
20246;DHT22;10281;54.406;18.556;2023-07-31T10:43:05;21.60;99.90
20246;DHT22;10281;54.406;18.556;2023-07-31T10:45:36;21.70;99.90
20246;DHT22;10281;54.406;18.556;2023-07-31T10:48:12;21.70;99.90
20246;DHT22;10281;54.406;18.556;2023-07-31T10:50:38;21.80;99.90
20246;DHT22;10281;54.406;18.556;2023-07-31T10:53:05;21.90;99.90
20246;DHT22;10281;54.406;18.556;2023-07-31T10:55:39;21.80;99.90
20246;DHT22;10281;54.406;18.556;2023-07-31T10:58:09;21.80;99.90
20246;DHT22;10281;54.406;18.556;2023-07-31T11:00:40;21.70;99.90
20246;DHT22;10281;54.406;18.556;2023-07-31T11:03:10;21.70;99.90
20246;DHT22;10281;54.406;18.556;2023-07-31T11:05:46;21.70;99.90
20246;DHT22;10281;54.406;18.556;2023-07-31T11:08:17;21.80;99.90
20246;DHT22;10281;54.406;18.556;2023-07-31T11:10:44;21.90;99.90
20246;DHT22;10281;54.406;18.556;2023-07-31T11:13:12;22.00;99.90
20246;DHT22;10281;54.406;18.556;2023-07-31T11:15:38;22.10;99.90
20246;DHT22;10281;54.406;18.556;2023-07-31T11:18:05;22.20;99.90
20246;DHT22;10281;54.406;18.556;2023-07-31T11:20:35;22.30;99.90
20246;DHT22;10281;54.406;18.556;2023-07-31T11:23:03;22.40;99.90
20246;DHT22;10281;54.406;18.556;2023-07-31T11:25:31;22.30;99.90
20246;DHT22;10281;54.406;18.556;2023-07-31T11:28:08;22.30;99.90
20246;DHT22;10281;54.406;18.556;2023-07-31T11:30:35;22.30;99.90
20246;DHT22;10281;54.406;18.556;2023-07-31T11:33:03;22.30;99.90
20246;DHT22;10281;54.406;18.556;2023-07-31T11:35:32;22.30;99.90
20246;DHT22;10281;54.406;18.556;2023-07-31T11:38:00;22.30;99.90
20246;DHT22;10281;54.406;18.556;2023-07-31T11:40:27;22.40;99.90
20246;DHT22;10281;54.406;18.556;2023-07-31T11:42:57;22.50;99.90
20246;DHT22;10281;54.406;18.556;2023-07-31T11:45:26;22.60;99.90
20246;DHT22;10281;54.406;18.556;2023-07-31T11:47:55;22.60;99.90
20246;DHT22;10281;54.406;18.556;2023-07-31T11:50:23;22.60;99.90
20246;DHT22;10281;54.406;18.556;2023-07-31T11:52:55;22.60;99.90
20246;DHT22;10281;54.406;18.556;2023-07-31T11:55:23;22.70;99.90
20246;DHT22;10281;54.406;18.556;2023-07-31T11:57:50;22.70;99.90
20246;DHT22;10281;54.406;18.556;2023-07-31T12:00:18;22.70;99.90
20246;DHT22;10281;54.406;18.556;2023-07-31T12:02:45;22.70;99.90
20246;DHT22;10281;54.406;18.556;2023-07-31T12:05:13;22.70;99.90
20246;DHT22;10281;54.406;18.556;2023-07-31T12:07:47;22.70;99.90
20246;DHT22;10281;54.406;18.556;2023-07-31T12:10:25;22.80;99.90
20246;DHT22;10281;54.406;18.556;2023-07-31T12:12:58;22.90;99.90
20246;DHT22;10281;54.406;18.556;2023-07-31T12:15:37;22.80;99.90
20246;DHT22;10281;54.406;18.556;2023-07-31T12:18:05;22.70;99.90
20246;DHT22;10281;54.406;18.556;2023-07-31T12:20:33;22.60;99.90
20246;DHT22;10281;54.406;18.556;2023-07-31T12:23:00;22.60;99.90
20246;DHT22;10281;54.406;18.556;2023-07-31T12:25:31;22.50;99.90
20246;DHT22;10281;54.406;18.556;2023-07-31T12:28:04;22.50;99.90
20246;DHT22;10281;54.406;18.556;2023-07-31T12:30:34;22.50;99.90
20246;DHT22;10281;54.406;18.556;2023-07-31T12:33:04;22.50;99.90
20246;DHT22;10281;54.406;18.556;2023-07-31T12:35:36;22.60;99.90
20246;DHT22;10281;54.406;18.556;2023-07-31T12:38:04;22.50;99.90
20246;DHT22;10281;54.406;18.556;2023-07-31T12:40:31;22.50;99.90
20246;DHT22;10281;54.406;18.556;2023-07-31T12:42:57;22.30;99.90
20246;DHT22;10281;54.406;18.556;2023-07-31T12:45:24;22.30;99.90
20246;DHT22;10281;54.406;18.556;2023-07-31T12:47:51;22.30;99.90
20246;DHT22;10281;54.406;18.556;2023-07-31T12:50:17;22.30;99.90
20246;DHT22;10281;54.406;18.556;2023-07-31T12:52:44;22.40;99.90
20246;DHT22;10281;54.406;18.556;2023-07-31T12:55:10;22.40;99.90
20246;DHT22;10281;54.406;18.556;2023-07-31T12:57:37;22.30;99.90
20246;DHT22;10281;54.406;18.556;2023-07-31T13:00:05;22.20;99.90
20246;DHT22;10281;54.406;18.556;2023-07-31T13:02:32;22.20;99.90
20246;DHT22;10281;54.406;18.556;2023-07-31T13:04:59;22.20;99.90
20246;DHT22;10281;54.406;18.556;2023-07-31T13:07:26;22.30;99.90
20246;DHT22;10281;54.406;18.556;2023-07-31T13:09:53;22.30;99.90
20246;DHT22;10281;54.406;18.556;2023-07-31T13:12:19;22.20;99.90
20246;DHT22;10281;54.406;18.556;2023-07-31T13:14:46;22.20;99.90
20246;DHT22;10281;54.406;18.556;2023-07-31T13:17:13;22.20;99.90
20246;DHT22;10281;54.406;18.556;2023-07-31T13:19:39;22.00;99.90
20246;DHT22;10281;54.406;18.556;2023-07-31T13:22:06;21.90;99.90
20246;DHT22;10281;54.406;18.556;2023-07-31T13:24:32;21.80;99.90
20246;DHT22;10281;54.406;18.556;2023-07-31T13:26:59;21.70;99.90
20246;DHT22;10281;54.406;18.556;2023-07-31T13:29:26;21.70;99.90
20246;DHT22;10281;54.406;18.556;2023-07-31T13:31:53;21.80;99.90
20246;DHT22;10281;54.406;18.556;2023-07-31T13:34:19;21.80;99.90
20246;DHT22;10281;54.406;18.556;2023-07-31T13:36:46;21.80;99.90
20246;DHT22;10281;54.406;18.556;2023-07-31T13:39:12;21.80;99.90
20246;DHT22;10281;54.406;18.556;2023-07-31T13:41:39;21.80;99.90
20246;DHT22;10281;54.406;18.556;2023-07-31T13:44:06;21.80;99.90
20246;DHT22;10281;54.406;18.556;2023-07-31T13:46:32;21.80;99.90
20246;DHT22;10281;54.406;18.556;2023-07-31T13:48:59;21.80;99.90
20246;DHT22;10281;54.406;18.556;2023-07-31T13:51:27;21.80;99.90
20246;DHT22;10281;54.406;18.556;2023-07-31T13:53:54;21.80;99.90
20246;DHT22;10281;54.406;18.556;2023-07-31T13:56:21;21.90;99.90
20246;DHT22;10281;54.406;18.556;2023-07-31T13:58:47;22.10;99.90
20246;DHT22;10281;54.406;18.556;2023-07-31T14:01:14;22.20;99.90
20246;DHT22;10281;54.406;18.556;2023-07-31T14:03:41;22.20;99.90
20246;DHT22;10281;54.406;18.556;2023-07-31T14:06:07;22.20;99.90
20246;DHT22;10281;54.406;18.556;2023-07-31T14:08:34;22.20;99.90
20246;DHT22;10281;54.406;18.556;2023-07-31T14:11:00;22.20;99.90
20246;DHT22;10281;54.406;18.556;2023-07-31T14:13:27;22.10;99.90
20246;DHT22;10281;54.406;18.556;2023-07-31T14:15:54;22.20;99.90
20246;DHT22;10281;54.406;18.556;2023-07-31T14:18:20;22.20;99.90
20246;DHT22;10281;54.406;18.556;2023-07-31T14:20:47;22.20;99.90
20246;DHT22;10281;54.406;18.556;2023-07-31T14:23:14;22.30;99.90
20246;DHT22;10281;54.406;18.556;2023-07-31T14:25:41;22.20;99.90
20246;DHT22;10281;54.406;18.556;2023-07-31T14:28:08;22.10;99.90
20246;DHT22;10281;54.406;18.556;2023-07-31T14:30:35;22.10;99.90
20246;DHT22;10281;54.406;18.556;2023-07-31T14:33:01;22.10;99.90
20246;DHT22;10281;54.406;18.556;2023-07-31T14:35:28;22.20;99.90
20246;DHT22;10281;54.406;18.556;2023-07-31T14:37:55;22.20;99.90
20246;DHT22;10281;54.406;18.556;2023-07-31T14:40:21;22.30;99.90
20246;DHT22;10281;54.406;18.556;2023-07-31T14:42:48;22.20;99.90
20246;DHT22;10281;54.406;18.556;2023-07-31T14:45:15;22.20;99.90
20246;DHT22;10281;54.406;18.556;2023-07-31T14:47:41;22.20;99.90
20246;DHT22;10281;54.406;18.556;2023-07-31T14:50:08;22.20;99.90
20246;DHT22;10281;54.406;18.556;2023-07-31T14:52:35;22.20;99.90
20246;DHT22;10281;54.406;18.556;2023-07-31T14:55:02;22.20;99.90
20246;DHT22;10281;54.406;18.556;2023-07-31T14:57:28;22.20;99.90
20246;DHT22;10281;54.406;18.556;2023-07-31T14:59:55;22.20;99.90
20246;DHT22;10281;54.406;18.556;2023-07-31T15:02:22;22.10;99.90
20246;DHT22;10281;54.406;18.556;2023-07-31T15:04:48;22.10;99.90
20246;DHT22;10281;54.406;18.556;2023-07-31T15:07:15;22.00;99.90
20246;DHT22;10281;54.406;18.556;2023-07-31T15:09:41;21.80;99.90
20246;DHT22;10281;54.406;18.556;2023-07-31T15:12:08;21.80;99.90
20246;DHT22;10281;54.406;18.556;2023-07-31T15:14:35;21.80;99.90
20246;DHT22;10281;54.406;18.556;2023-07-31T15:17:02;21.70;99.90
20246;DHT22;10281;54.406;18.556;2023-07-31T15:19:29;21.60;99.90